Time;durP1;ratioP1;P1;durP2;ratioP2;P2;SDS_P1;SDS_P2;PMS_P1;PMS_P2;Temp;Humidity;BMP_temperature;BMP_pressure;BME280_temperature;BME280_humidity;BME280_pressure;Samples;Min_cycle;Max_cycle;Signal;HPM_P1;HPM_P2
2022/05/27 00:01:30;;;;;;;2.13;1.92;;;17.40;99.90;;;;;;7400940;19;20352;-84
2022/05/27 00:03:58;;;;;;;2.30;1.87;;;17.40;99.90;;;;;;7406597;19;20404;-85
2022/05/27 00:06:24;;;;;;;2.63;1.88;;;17.40;99.90;;;;;;7402164;19;20399;-85
2022/05/27 00:08:50;;;;;;;2.10;1.95;;;17.30;99.90;;;;;;7405652;19;21291;-85
2022/05/27 00:11:16;;;;;;;2.47;1.95;;;17.40;99.90;;;;;;7401358;19;20713;-79
2022/05/27 00:13:41;;;;;;;2.37;2.03;;;17.30;99.90;;;;;;7408504;19;20364;-81
2022/05/27 00:16:07;;;;;;;4.80;2.08;;;17.40;99.90;;;;;;7409494;19;20368;-84
2022/05/27 00:18:33;;;;;;;2.00;1.90;;;17.30;99.90;;;;;;7409976;19;20377;-84
2022/05/27 00:20:59;;;;;;;2.17;1.92;;;17.30;99.90;;;;;;7405540;19;20344;-85
2022/05/27 00:23:24;;;;;;;2.03;1.83;;;17.30;99.90;;;;;;7408205;19;20377;-89
2022/05/27 00:25:50;;;;;;;1.92;1.80;;;17.30;99.90;;;;;;7400960;19;21304;-84
2022/05/27 00:28:16;;;;;;;2.10;1.90;;;17.30;99.90;;;;;;7408573;19;20356;-78
2022/05/27 00:30:42;;;;;;;2.40;1.70;;;17.30;99.90;;;;;;7406265;19;20349;-83
2022/05/27 00:33:07;;;;;;;3.87;2.00;;;17.30;99.90;;;;;;7409946;19;20377;-86
2022/05/27 00:35:33;;;;;;;2.67;1.83;;;17.30;99.90;;;;;;7409034;19;20360;-84
2022/05/27 00:37:59;;;;;;;2.60;1.80;;;17.30;99.90;;;;;;7405696;19;20400;-85
2022/05/27 00:40:25;;;;;;;3.40;2.10;;;17.30;99.90;;;;;;7406462;19;20360;-83
2022/05/27 00:42:51;;;;;;;3.35;1.70;;;17.30;99.90;;;;;;7403601;19;20352;-88
2022/05/27 00:45:22;;;;;;;2.10;1.70;;;17.30;99.90;;;;;;7412002;19;20392;-82
2022/05/27 00:47:49;;;;;;;1.80;1.67;;;17.30;99.90;;;;;;7406313;19;20379;-85
2022/05/27 00:50:16;;;;;;;3.70;2.10;;;17.30;99.90;;;;;;7408875;19;20384;-85
2022/05/27 00:52:42;;;;;;;4.35;2.00;;;17.30;99.90;;;;;;7401113;19;20363;-86
2022/05/27 00:55:17;;;;;;;3.83;2.13;;;17.40;99.90;;;;;;7408293;19;20361;-82
2022/05/27 00:57:46;;;;;;;3.58;1.98;;;17.30;99.90;;;;;;7401296;19;20344;-86
2022/05/27 01:00:16;;;;;;;4.25;1.88;;;17.30;99.90;;;;;;7406760;19;20354;-85
2022/05/27 01:02:41;;;;;;;2.25;1.60;;;17.30;99.90;;;;;;7404847;19;20357;-84
2022/05/27 01:05:08;;;;;;;3.78;2.00;;;17.30;99.90;;;;;;7408235;19;20349;-86
2022/05/27 01:07:34;;;;;;;1.90;1.80;;;17.30;99.90;;;;;;7402111;19;20388;-84
2022/05/27 01:10:00;;;;;;;2.38;1.80;;;17.30;99.90;;;;;;7407964;19;21063;-80
2022/05/27 01:12:50;;;;;;;2.85;1.73;;;17.30;99.90;;;;;;7403808;19;20767;-84
2022/05/27 01:15:24;;;;;;;2.55;1.73;;;17.30;99.90;;;;;;7411260;19;20352;-85
2022/05/27 01:18:17;;;;;;;2.03;1.83;;;17.40;99.90;;;;;;7404931;19;20408;-87
2022/05/27 01:20:55;;;;;;;2.30;1.60;;;17.40;99.90;;;;;;7405242;19;20348;-83
2022/05/27 01:23:44;;;;;;;3.22;1.95;;;17.40;99.90;;;;;;7410084;19;20385;-87
2022/05/27 01:26:24;;;;;;;3.75;1.90;;;17.40;99.90;;;;;;7403443;19;20376;-84
2022/05/27 01:29:13;;;;;;;3.00;1.70;;;17.40;99.90;;;;;;7406382;19;20356;-84
2022/05/27 01:31:47;;;;;;;2.03;1.80;;;17.30;99.90;;;;;;7402486;19;20636;-81
2022/05/27 01:34:20;;;;;;;3.03;1.88;;;17.40;99.90;;;;;;7410643;19;20360;-79
2022/05/27 01:37:05;;;;;;;2.50;1.60;;;17.30;99.90;;;;;;7401349;19;20367;-77
2022/05/27 01:39:45;;;;;;;2.03;1.70;;;17.40;99.90;;;;;;7406612;19;20384;-83
2022/05/27 01:42:19;;;;;;;1.70;1.60;;;17.50;99.90;;;;;;7404753;19;20360;-86
2022/05/27 01:44:50;;;;;;;2.05;1.85;;;17.30;99.90;;;;;;7408829;19;20348;-86
2022/05/27 01:47:31;;;;;;;3.13;1.67;;;17.30;99.90;;;;;;7402343;19;20404;-81
2022/05/27 01:50:03;;;;;;;2.25;1.85;;;17.30;99.90;;;;;;7407104;19;20348;-85
2022/05/27 01:52:30;;;;;;;1.50;1.40;;;17.40;99.90;;;;;;7405934;19;20360;-84
2022/05/27 01:55:11;;;;;;;3.08;1.83;;;17.30;99.90;;;;;;7409261;19;20365;-82
2022/05/27 01:57:44;;;;;;;1.57;1.43;;;17.40;99.90;;;;;;7402315;19;20360;-78
2022/05/27 02:00:21;;;;;;;2.80;1.80;;;17.40;99.90;;;;;;7408301;19;20403;-84
2022/05/27 02:03:17;;;;;;;1.77;1.60;;;17.40;99.90;;;;;;7404139;19;20389;-79
2022/05/27 02:05:47;;;;;;;2.33;1.65;;;17.30;99.90;;;;;;7405262;19;20360;-80
2022/05/27 02:08:14;;;;;;;1.67;1.50;;;17.30;99.90;;;;;;7408475;19;20360;-86
2022/05/27 02:11:16;;;;;;;2.05;1.80;;;17.30;99.90;;;;;;7401551;19;20360;-83
2022/05/27 02:13:54;;;;;;;2.60;1.60;;;17.30;99.90;;;;;;7407421;19;20356;-83
2022/05/27 02:16:31;;;;;;;4.93;1.90;;;17.30;99.90;;;;;;7402325;19;20364;-84
2022/05/27 02:19:15;;;;;;;2.30;2.03;;;17.30;99.90;;;;;;7405730;19;20368;-83
2022/05/27 02:21:44;;;;;;;1.50;1.40;;;17.30;99.90;;;;;;7402534;19;20353;-85
2022/05/27 02:24:23;;;;;;;1.98;1.67;;;17.30;99.90;;;;;;7405631;19;20349;-84
2022/05/27 02:26:56;;;;;;;3.95;1.98;;;17.30;99.90;;;;;;7403534;19;20363;-84
2022/05/27 02:29:24;;;;;;;2.75;2.22;;;17.20;99.90;;;;;;7406332;19;20360;-89
2022/05/27 02:31:52;;;;;;;2.72;1.90;;;17.30;99.90;;;;;;7403634;19;20348;-82
2022/05/27 02:37:14;;;;;;;3.23;2.13;;;17.20;99.90;;;;;;7403607;19;20352;-89
2022/05/27 02:39:40;;;;;;;3.08;2.22;;;17.20;99.90;;;;;;7409866;19;20365;-85
2022/05/27 02:42:16;;;;;;;2.70;2.30;;;16.80;99.90;;;;;;7402004;19;20356;-83
2022/05/27 02:45:02;;;;;;;4.72;2.50;;;16.80;99.90;;;;;;7410193;19;20373;-83
2022/05/27 02:47:48;;;;;;;3.35;2.60;;;16.50;99.90;;;;;;7407060;19;20353;-85
2022/05/27 02:50:33;;;;;;;2.67;2.47;;;16.30;99.90;;;;;;7410484;19;20411;-83
2022/05/27 02:53:28;;;;;;;7.63;2.67;;;16.10;99.90;;;;;;7403836;19;20381;-85
2022/05/27 02:56:03;;;;;;;3.72;2.30;;;15.90;99.90;;;;;;7401897;19;20367;-85
2022/05/27 02:58:29;;;;;;;2.20;1.98;;;15.50;99.90;;;;;;7407903;19;20408;-87
2022/05/27 03:00:55;;;;;;;2.53;2.33;;;15.50;99.90;;;;;;7402847;19;20348;-85
2022/05/27 03:03:21;;;;;;;2.28;2.08;;;15.60;99.90;;;;;;7404774;19;20444;-82
2022/05/27 03:06:24;;;;;;;1.90;1.80;;;15.30;99.90;;;;;;7401314;19;20360;-82
2022/05/27 03:09:27;;;;;;;2.35;2.05;;;15.10;99.90;;;;;;7416262;19;20357;-87
2022/05/27 03:12:05;;;;;;;2.70;2.10;;;14.80;99.90;;;;;;7409645;19;20420;-88
2022/05/27 03:14:51;;;;;;;2.10;1.90;;;14.70;99.90;;;;;;7415283;19;20360;-90
2022/05/27 03:17:26;;;;;;;2.72;1.50;;;14.60;99.90;;;;;;7407374;19;20368;-83
2022/05/27 03:20:30;;;;;;;1.50;1.40;;;14.50;99.90;;;;;;7411052;19;20380;-85
2022/05/27 03:23:24;;;;;;;1.50;1.40;;;14.30;99.90;;;;;;7415685;19;20792;-89
2022/05/27 03:25:57;;;;;;;1.70;1.60;;;14.30;99.90;;;;;;7412351;19;20401;-89
2022/05/27 03:29:05;;;;;;;2.00;1.90;;;14.20;99.90;;;;;;7415198;19;20357;-88
2022/05/27 03:31:56;;;;;;;2.95;2.13;;;14.20;99.90;;;;;;7409523;19;20356;-84
2022/05/27 03:34:28;;;;;;;2.55;2.35;;;14.20;99.90;;;;;;7418970;19;20341;-88
2022/05/27 03:37:08;;;;;;;2.65;2.45;;;14.30;99.90;;;;;;7412431;19;20406;-88
2022/05/27 03:39:52;;;;;;;3.15;2.35;;;14.30;99.90;;;;;;7419526;19;20349;-86
2022/05/27 03:42:19;;;;;;;2.50;2.30;;;14.30;99.90;;;;;;7413491;19;20361;-87
2022/05/27 03:45:04;;;;;;;2.42;2.22;;;14.40;99.90;;;;;;7420832;19;20367;-89
2022/05/27 03:47:30;;;;;;;2.40;2.20;;;14.40;99.90;;;;;;7413926;19;20388;-85
2022/05/27 03:49:55;;;;;;;3.47;2.67;;;14.40;99.90;;;;;;7420228;19;20363;-88
2022/05/27 03:52:22;;;;;;;3.20;2.55;;;14.40;99.90;;;;;;7413718;19;20357;-88
2022/05/27 03:54:48;;;;;;;2.55;2.33;;;14.40;99.90;;;;;;7405519;19;20352;-85
2022/05/27 03:57:14;;;;;;;4.65;2.60;;;14.40;99.90;;;;;;7410076;19;20396;-85
2022/05/27 03:59:40;;;;;;;2.50;2.30;;;14.40;99.90;;;;;;7423409;19;20356;-82
2022/05/27 04:02:05;;;;;;;3.45;2.80;;;14.40;99.90;;;;;;7418741;19;20356;-91
2022/05/27 04:04:31;;;;;;;2.40;2.20;;;14.40;99.90;;;;;;7423092;19;20366;-92
2022/05/27 04:06:57;;;;;;;2.53;2.33;;;14.40;99.90;;;;;;7419191;19;20360;-91
2022/05/27 04:09:23;;;;;;;2.60;2.40;;;14.60;99.90;;;;;;7421674;19;20382;-88
2022/05/27 04:11:49;;;;;;;2.50;2.30;;;14.40;99.90;;;;;;7415388;19;20419;-88
2022/05/27 04:14:14;;;;;;;2.40;2.20;;;14.40;99.90;;;;;;7426099;19;20356;-87
2022/05/27 04:16:40;;;;;;;2.03;1.90;;;14.40;99.90;;;;;;7420601;19;20372;-90
2022/05/27 04:19:06;;;;;;;2.60;2.40;;;14.50;99.90;;;;;;7422828;19;20360;-86
2022/05/27 04:21:32;;;;;;;2.00;1.88;;;14.40;99.90;;;;;;7419138;19;20341;-84
2022/05/27 04:23:58;;;;;;;3.83;2.30;;;14.40;99.90;;;;;;7420534;19;20416;-86
2022/05/27 04:26:23;;;;;;;2.30;2.10;;;14.40;99.90;;;;;;7417292;19;20370;-88
2022/05/27 04:28:49;;;;;;;2.23;2.03;;;14.50;99.90;;;;;;7420684;19;20384;-91
2022/05/27 04:31:15;;;;;;;2.35;2.15;;;14.50;99.90;;;;;;7417239;19;20442;-89
2022/05/27 04:33:41;;;;;;;2.00;1.85;;;14.50;99.90;;;;;;7420085;19;20353;-87
2022/05/27 04:36:07;;;;;;;2.33;1.93;;;14.50;99.90;;;;;;7415835;19;20359;-89
2022/05/27 04:38:33;;;;;;;2.00;1.90;;;14.50;99.90;;;;;;7415736;19;20381;-88
2022/05/27 04:40:58;;;;;;;2.87;2.23;;;14.50;99.90;;;;;;7416003;19;20405;-91
2022/05/27 04:43:24;;;;;;;2.58;2.10;;;14.40;99.90;;;;;;7415981;19;20364;-89
2022/05/27 04:45:50;;;;;;;2.50;2.30;;;14.40;99.90;;;;;;7416079;19;20344;-87
2022/05/27 04:48:17;;;;;;;2.38;2.00;;;14.60;99.90;;;;;;7418840;19;20365;-84
2022/05/27 04:50:43;;;;;;;2.30;2.10;;;14.50;99.90;;;;;;7418353;19;20357;-89
2022/05/27 04:53:09;;;;;;;2.00;1.83;;;14.40;99.90;;;;;;7421212;19;20349;-87
2022/05/27 04:55:35;;;;;;;2.13;1.93;;;14.40;99.90;;;;;;7419861;19;20357;-91
2022/05/27 04:58:00;;;;;;;2.38;2.17;;;14.30;99.90;;;;;;7419050;19;20340;-88
2022/05/27 05:00:30;;;;;;;2.43;1.90;;;14.20;99.90;;;;;;7421271;19;20317;-90
2022/05/27 05:02:55;;;;;;;2.25;2.05;;;14.40;99.90;;;;;;7421945;19;20373;-91
2022/05/27 05:05:22;;;;;;;2.08;1.95;;;14.30;99.90;;;;;;7423927;19;20371;-89
2022/05/27 05:07:50;;;;;;;3.33;2.10;;;14.30;99.90;;;;;;7424407;19;20363;-88
2022/05/27 05:10:19;;;;;;;2.00;1.90;;;14.50;99.90;;;;;;7425439;19;20487;-88
2022/05/27 05:12:44;;;;;;;2.15;2.05;;;14.40;99.90;;;;;;7421440;19;20377;-89
2022/05/27 05:15:11;;;;;;;2.40;2.17;;;14.40;99.90;;;;;;7424455;19;20345;-87
2022/05/27 05:17:36;;;;;;;2.58;2.38;;;14.40;99.90;;;;;;7420197;19;20356;-87
2022/05/27 05:20:04;;;;;;;5.13;2.10;;;14.50;99.90;;;;;;7423602;19;20371;-91
2022/05/27 05:22:30;;;;;;;2.60;2.40;;;14.50;99.90;;;;;;7418816;19;20369;-88
2022/05/27 05:24:56;;;;;;;2.42;2.22;;;14.60;99.90;;;;;;7422745;19;20348;-88
2022/05/27 05:27:22;;;;;;;2.93;2.63;;;14.70;99.90;;;;;;7423124;19;20360;-91
2022/05/27 05:29:52;;;;;;;3.03;2.83;;;14.70;99.90;;;;;;7425863;19;20360;-89
2022/05/27 05:32:18;;;;;;;2.97;2.63;;;14.70;99.90;;;;;;7419180;19;20401;-90
2022/05/27 05:34:43;;;;;;;3.07;2.77;;;14.80;99.90;;;;;;7422127;19;20361;-87
2022/05/27 05:37:09;;;;;;;3.10;2.80;;;14.80;99.90;;;;;;7421955;19;20377;-89
2022/05/27 05:39:36;;;;;;;3.00;2.80;;;14.80;99.90;;;;;;7424949;19;20376;-88
2022/05/27 05:42:03;;;;;;;3.50;2.60;;;14.80;99.90;;;;;;7419800;19;20357;-88
2022/05/27 05:44:31;;;;;;;4.45;2.70;;;14.70;99.90;;;;;;7414939;19;20362;-88
2022/05/27 05:46:57;;;;;;;5.05;2.58;;;14.70;99.90;;;;;;7420528;19;20341;-89
2022/05/27 05:49:23;;;;;;;3.03;2.60;;;14.60;99.90;;;;;;7423023;19;20341;-89
2022/05/27 05:51:49;;;;;;;2.83;2.28;;;14.60;99.90;;;;;;7419144;19;20361;-87
2022/05/27 05:54:15;;;;;;;2.47;2.28;;;14.60;99.90;;;;;;7423026;19;20373;-88
2022/05/27 05:56:42;;;;;;;2.50;2.23;;;14.70;99.90;;;;;;7423146;19;20370;-92
2022/05/27 05:59:08;;;;;;;2.60;2.40;;;14.50;99.90;;;;;;7426084;19;20357;-90
2022/05/27 06:01:33;;;;;;;2.37;2.13;;;14.40;99.90;;;;;;7420422;19;20381;-89
2022/05/27 06:03:59;;;;;;;2.60;2.40;;;14.30;99.90;;;;;;7426573;19;20371;-89
2022/05/27 06:06:24;;;;;;;4.10;2.30;;;14.40;99.90;;;;;;7421943;19;20348;-89
2022/05/27 06:08:50;;;;;;;2.37;2.17;;;14.40;99.90;;;;;;7425868;19;20353;-90
2022/05/27 06:11:16;;;;;;;2.25;2.05;;;14.40;99.90;;;;;;7421901;19;20370;-86
2022/05/27 06:13:41;;;;;;;2.33;1.93;;;14.40;99.90;;;;;;7425910;19;20388;-90
2022/05/27 06:16:08;;;;;;;2.28;2.08;;;14.20;99.90;;;;;;7425670;19;20369;-89
2022/05/27 06:18:33;;;;;;;3.40;2.40;;;14.20;99.90;;;;;;7425660;19;20359;-89
2022/05/27 06:20:59;;;;;;;2.23;2.10;;;14.20;99.90;;;;;;7422459;19;20364;-92
2022/05/27 06:23:28;;;;;;;2.30;2.10;;;14.20;99.90;;;;;;7422783;19;20364;-87
2022/05/27 06:25:57;;;;;;;2.55;2.00;;;14.20;99.90;;;;;;7421358;19;20349;-89
2022/05/27 06:36:39;;;;;;;2.28;2.08;;;14.40;99.90;;;;;;7419330;19;20348;-90
2022/05/27 06:39:04;;;;;;;2.23;2.03;;;14.40;99.90;;;;;;7424922;19;20328;-90
2022/05/27 06:41:30;;;;;;;2.53;2.03;;;14.30;99.90;;;;;;7415839;19;20643;-87
2022/05/27 06:43:56;;;;;;;2.33;2.13;;;14.30;99.90;;;;;;7420176;19;20348;-89
2022/05/27 06:46:22;;;;;;;3.83;2.30;;;14.30;99.90;;;;;;7419252;19;20352;-89
2022/05/27 06:48:47;;;;;;;2.25;2.10;;;14.20;99.90;;;;;;7420214;19;20376;-91
2022/05/27 06:51:13;;;;;;;3.60;1.90;;;14.20;99.90;;;;;;7410941;19;20364;-90
2022/05/27 06:53:39;;;;;;;2.50;2.30;;;14.20;99.90;;;;;;7419828;19;20344;-90
2022/05/27 06:56:05;;;;;;;2.58;2.25;;;14.10;99.90;;;;;;7422006;19;20389;-88
2022/05/27 06:58:32;;;;;;;2.50;2.30;;;14.00;99.90;;;;;;7428464;19;20416;-89
2022/05/27 07:00:58;;;;;;;2.15;1.95;;;14.00;99.90;;;;;;7420133;19;20332;-90
2022/05/27 07:03:24;;;;;;;2.07;1.87;;;13.80;99.90;;;;;;7419791;19;20341;-89
2022/05/27 07:05:49;;;;;;;2.85;2.10;;;13.70;99.90;;;;;;7421435;19;20343;-89
2022/05/27 07:08:15;;;;;;;2.30;2.10;;;13.70;99.90;;;;;;7425084;19;20384;-87
2022/05/27 07:10:41;;;;;;;2.28;2.08;;;13.70;99.90;;;;;;7421006;19;20337;-89
2022/05/27 07:13:06;;;;;;;2.20;2.00;;;13.80;99.90;;;;;;7422800;19;20348;-89
2022/05/27 07:15:32;;;;;;;2.40;2.20;;;13.80;99.90;;;;;;7423521;19;20351;-88
2022/05/27 07:17:57;;;;;;;1.95;1.85;;;13.70;99.90;;;;;;7421518;19;20381;-88
2022/05/27 07:20:23;;;;;;;4.33;2.17;;;13.80;99.90;;;;;;7422969;19;20344;-87
2022/05/27 07:22:52;;;;;;;2.17;1.97;;;13.80;99.90;;;;;;7420421;19;20405;-90
2022/05/27 07:25:18;;;;;;;2.75;1.80;;;13.80;99.90;;;;;;7423468;19;20356;-89
2022/05/27 07:27:44;;;;;;;1.70;1.60;;;13.80;99.90;;;;;;7422569;19;20353;-91
2022/05/27 07:30:11;;;;;;;2.15;1.50;;;13.90;99.90;;;;;;7423745;19;20377;-88
2022/05/27 07:32:36;;;;;;;2.42;1.80;;;14.00;99.90;;;;;;7418818;19;20369;-89
2022/05/27 07:35:03;;;;;;;2.00;1.90;;;13.90;99.90;;;;;;7421819;19;20348;-85
2022/05/27 07:37:29;;;;;;;2.80;1.67;;;14.00;99.90;;;;;;7419801;19;20368;-89
2022/05/27 07:39:54;;;;;;;3.20;2.20;;;13.90;99.90;;;;;;7418516;19;20348;-87
2022/05/27 07:42:20;;;;;;;2.40;2.20;;;14.00;99.90;;;;;;7417858;19;20364;-89
2022/05/27 07:44:46;;;;;;;2.67;2.30;;;14.00;99.90;;;;;;7422676;19;20345;-87
2022/05/27 07:47:11;;;;;;;2.58;2.15;;;14.10;99.90;;;;;;7415442;19;20422;-85
2022/05/27 07:49:37;;;;;;;2.30;1.83;;;14.00;99.90;;;;;;7416285;19;20438;-87
2022/05/27 07:52:03;;;;;;;2.00;1.80;;;14.00;99.90;;;;;;7412474;19;20372;-86
2022/05/27 07:54:29;;;;;;;1.90;1.65;;;13.90;99.90;;;;;;7414458;19;20355;-89
2022/05/27 07:56:54;;;;;;;2.37;1.60;;;13.90;99.90;;;;;;7415744;19;20648;-84
2022/05/27 07:59:20;;;;;;;2.27;1.60;;;13.90;99.90;;;;;;7416913;19;20373;-86
2022/05/27 08:01:46;;;;;;;1.63;1.52;;;13.90;99.90;;;;;;7402815;19;20372;-83
2022/05/27 08:04:12;;;;;;;1.98;1.63;;;14.00;99.90;;;;;;7413196;19;20353;-84
2022/05/27 08:06:37;;;;;;;1.90;1.70;;;14.00;99.90;;;;;;7400969;19;20376;-81
2022/05/27 08:09:04;;;;;;;1.60;1.50;;;14.10;99.90;;;;;;7401423;19;20369;-86
2022/05/27 08:11:31;;;;;;;2.10;1.90;;;14.10;99.90;;;;;;7405877;19;20362;-84
2022/05/27 08:13:57;;;;;;;1.75;1.65;;;14.10;99.90;;;;;;7412910;19;20387;-83
2022/05/27 08:16:22;;;;;;;1.77;1.67;;;14.20;99.90;;;;;;7380052;19;20351;-79
2022/05/27 08:18:48;;;;;;;2.10;1.60;;;14.40;99.90;;;;;;7388796;19;20360;-81
2022/05/27 08:21:14;;;;;;;3.30;1.63;;;14.60;99.90;;;;;;7391422;19;20719;-84
2022/05/27 08:23:39;;;;;;;1.40;1.30;;;14.70;99.90;;;;;;7397310;19;20369;-83
2022/05/27 08:26:05;;;;;;;1.63;1.50;;;14.70;99.90;;;;;;7387925;19;20373;-82
2022/05/27 08:28:31;;;;;;;1.93;1.53;;;14.80;99.90;;;;;;7382725;19;20375;-81
2022/05/27 08:30:58;;;;;;;2.38;1.40;;;14.80;99.90;;;;;;7385474;19;20372;-80
2022/05/27 08:33:24;;;;;;;2.88;1.30;;;14.80;99.90;;;;;;7393763;19;20594;-82
2022/05/27 08:38:35;;;;;;;1.60;1.50;;;14.70;99.90;;;;;;7396652;19;20380;-78
2022/05/27 08:41:34;;;;;;;1.42;1.33;;;14.80;99.90;;;;;;7395354;19;20360;-81
2022/05/27 08:44:23;;;;;;;1.40;1.27;;;14.90;99.90;;;;;;7390543;19;20378;-80
2022/05/27 08:47:26;;;;;;;1.40;1.30;;;14.80;99.90;;;;;;7379933;19;20374;-79
2022/05/27 08:49:57;;;;;;;1.80;1.70;;;14.60;99.90;;;;;;7390796;19;20364;-81
2022/05/27 08:52:33;;;;;;;1.60;1.50;;;14.60;99.90;;;;;;7383290;19;20397;-81
2022/05/27 08:55:06;;;;;;;1.55;1.45;;;14.80;99.90;;;;;;7390165;19;20367;-84
2022/05/27 09:00:21;;;;;;;1.42;1.30;;;14.90;99.90;;;;;;7396889;19;20407;-81
2022/05/27 09:02:54;;;;;;;1.48;1.30;;;15.10;99.90;;;;;;7375518;19;20455;-80
2022/05/27 09:05:39;;;;;;;1.73;1.63;;;14.80;99.90;;;;;;7383967;19;20369;-79
2022/05/27 09:08:15;;;;;;;3.15;1.60;;;15.20;99.90;;;;;;7390969;19;20745;-80
2022/05/27 09:10:56;;;;;;;1.70;1.60;;;15.40;99.90;;;;;;7389982;19;20397;-82
2022/05/27 09:13:41;;;;;;;2.80;1.60;;;15.50;99.90;;;;;;7390732;19;20369;-82
2022/05/27 09:16:16;;;;;;;1.60;1.50;;;15.90;99.90;;;;;;7384542;19;20356;-82
2022/05/27 09:18:49;;;;;;;2.10;1.52;;;16.00;99.90;;;;;;7387271;19;20368;-79
2022/05/27 09:21:38;;;;;;;1.73;1.63;;;16.10;99.90;;;;;;7377429;19;20368;-82
2022/05/27 09:24:36;;;;;;;2.25;1.65;;;16.00;99.90;;;;;;7383327;19;20357;-81
2022/05/27 09:27:14;;;;;;;1.60;1.50;;;15.90;99.90;;;;;;7377087;19;20391;-79
2022/05/27 09:30:06;;;;;;;3.60;1.75;;;15.90;99.90;;;;;;7385016;19;20365;-79
2022/05/27 09:32:36;;;;;;;2.40;1.43;;;16.10;99.90;;;;;;7371587;19;20889;-78
2022/05/27 09:35:06;;;;;;;2.27;1.47;;;15.90;99.90;;;;;;7384693;19;20349;-79
2022/05/27 09:37:35;;;;;;;2.50;1.70;;;16.10;99.90;;;;;;7380602;19;20373;-78
2022/05/27 09:40:07;;;;;;;2.88;2.40;;;16.10;99.90;;;;;;7390061;19;20349;-80
2022/05/27 09:42:40;;;;;;;2.17;1.50;;;16.20;99.90;;;;;;7376119;19;20388;-77
2022/05/27 09:45:06;;;;;;;2.58;1.90;;;16.10;99.90;;;;;;7377175;19;20382;-79
2022/05/27 09:47:32;;;;;;;1.60;1.50;;;16.30;99.90;;;;;;7372846;19;20337;-78
2022/05/27 09:50:25;;;;;;;1.80;1.58;;;16.40;99.90;;;;;;7378715;19;21236;-80
2022/05/27 09:52:53;;;;;;;1.40;1.30;;;16.70;99.90;;;;;;7368997;19;20892;-79
2022/05/27 09:55:39;;;;;;;2.33;1.70;;;16.40;99.90;;;;;;7377246;19;20600;-76
2022/05/27 09:58:05;;;;;;;1.70;1.60;;;16.40;99.90;;;;;;7380420;19;20352;-79
2022/05/27 10:00:49;;;;;;;2.30;1.50;;;17.00;99.90;;;;;;7381098;19;20706;-81
2022/05/27 10:03:21;;;;;;;2.20;2.00;;;17.40;99.90;;;;;;7376791;19;20340;-82
2022/05/27 10:05:54;;;;;;;2.65;1.80;;;17.40;99.90;;;;;;7384259;19;20364;-81
2022/05/27 10:08:40;;;;;;;1.40;1.30;;;17.60;99.90;;;;;;7393521;19;20368;-80
2022/05/27 10:11:10;;;;;;;1.53;1.43;;;17.80;99.90;;;;;;7401220;19;20356;-91
2022/05/27 10:13:36;;;;;;;1.77;1.30;;;17.60;99.90;;;;;;7408366;19;20368;-87
2022/05/27 10:16:11;;;;;;;1.70;1.30;;;17.70;99.90;;;;;;7402023;19;20384;-90
2022/05/27 10:18:38;;;;;;;2.05;1.33;;;17.40;99.90;;;;;;7409429;19;20353;-87
2022/05/27 10:21:11;;;;;;;2.05;1.48;;;17.20;99.90;;;;;;7403759;19;20363;-87
2022/05/27 10:23:38;;;;;;;2.65;1.50;;;17.70;99.90;;;;;;7405105;19;20383;-83
2022/05/27 10:26:27;;;;;;;3.75;1.25;;;17.80;99.90;;;;;;7395643;19;20883;-85
2022/05/27 10:29:06;;;;;;;3.63;1.42;;;18.40;99.90;;;;;;7405558;19;20967;-87
2022/05/27 10:31:32;;;;;;;2.15;1.60;;;18.00;99.90;;;;;;7406381;19;20368;-84
2022/05/27 10:33:58;;;;;;;2.23;1.40;;;17.60;99.90;;;;;;7416757;19;20399;-87
2022/05/27 10:36:37;;;;;;;1.95;1.40;;;17.70;99.90;;;;;;7407380;19;20352;-87
2022/05/27 10:39:10;;;;;;;1.63;1.40;;;18.10;99.90;;;;;;7410456;19;20349;-86
2022/05/27 10:42:17;;;;;;;3.53;2.03;;;18.70;99.90;;;;;;7402696;19;21131;-84
2022/05/27 10:45:11;;;;;;;2.72;1.60;;;18.90;99.90;;;;;;7404802;19;20368;-86
2022/05/27 10:48:07;;;;;;;3.35;1.33;;;18.20;99.90;;;;;;7396173;19;20433;-84
2022/05/27 10:50:40;;;;;;;3.10;1.48;;;17.80;99.90;;;;;;7402542;19;20352;-82
2022/05/27 10:53:08;;;;;;;2.67;1.52;;;18.20;99.90;;;;;;7396938;19;21046;-83
2022/05/27 10:56:02;;;;;;;1.85;1.55;;;18.60;99.90;;;;;;7401464;19;20357;-83
2022/05/27 11:02:04;;;;;;;3.90;1.38;;;18.30;99.90;;;;;;7400465;19;20336;-80
2022/05/27 11:04:53;;;;;;;2.58;1.67;;;17.70;99.90;;;;;;7388532;19;20377;-79
2022/05/27 11:07:46;;;;;;;2.55;1.27;;;17.40;99.90;;;;;;7379681;19;20983;-80
2022/05/27 11:10:18;;;;;;;3.97;1.50;;;17.80;99.90;;;;;;7383822;19;20348;-82
2022/05/27 11:15:52;;;;;;;3.35;1.65;;;19.10;99.90;;;;;;7382712;19;20352;-82
2022/05/27 11:18:58;;;;;;;3.35;1.70;;;19.70;99.90;;;;;;7385551;19;20348;-80
2022/05/27 11:21:30;;;;;;;1.40;1.25;;;20.30;99.90;;;;;;7382946;19;20357;-80
2022/05/27 11:24:14;;;;;;;3.05;1.58;;;20.30;99.90;;;;;;7387508;19;20347;-80
2022/05/27 11:27:22;;;;;;;2.05;1.58;;;20.50;99.90;;;;;;7381855;19;20457;-78
2022/05/27 11:29:53;;;;;;;1.75;1.42;;;20.00;99.90;;;;;;7388469;19;20353;-80
2022/05/27 11:32:49;;;;;;;3.40;1.60;;;19.70;99.20;;;;;;7378132;19;20765;-81
2022/05/27 11:35:33;;;;;;;3.00;1.50;;;20.10;99.90;;;;;;7386095;19;20753;-80
2022/05/27 11:38:25;;;;;;;3.50;1.50;;;20.40;99.90;;;;;;7391116;19;20492;-80
2022/05/27 11:41:12;;;;;;;2.03;1.40;;;20.80;99.90;;;;;;7393553;19;20345;-85
2022/05/27 11:43:43;;;;;;;4.60;1.45;;;21.30;99.90;;;;;;7409303;19;20345;-84
2022/05/27 11:46:12;;;;;;;5.30;1.52;;;21.50;97.90;;;;;;7399049;19;20353;-81
2022/05/27 11:49:19;;;;;;;3.95;1.40;;;20.90;95.00;;;;;;7402867;19;20410;-81
2022/05/27 11:52:22;;;;;;;2.05;1.40;;;20.70;96.50;;;;;;7394006;19;20383;-82
2022/05/27 11:55:25;;;;;;;3.67;1.60;;;20.80;97.70;;;;;;7401661;19;20356;-86
2022/05/27 11:57:59;;;;;;;2.55;1.48;;;20.90;94.40;;;;;;7402215;19;20356;-85
2022/05/27 12:00:27;;;;;;;2.67;1.30;;;21.40;97.60;;;;;;7400019;19;20324;-86
2022/05/27 12:03:33;;;;;;;2.45;1.42;;;21.20;93.50;;;;;;7399025;19;20357;-85
2022/05/27 12:06:03;;;;;;;6.80;1.70;;;21.10;93.10;;;;;;7403080;19;20375;-87
2022/05/27 12:08:56;;;;;;;1.75;1.40;;;21.50;92.10;;;;;;7406300;19;20427;-87
2022/05/27 12:11:27;;;;;;;3.67;1.70;;;20.90;87.20;;;;;;7399576;19;20357;-87
2022/05/27 12:13:55;;;;;;;3.30;1.60;;;21.20;90.30;;;;;;7409650;19;20361;-85
2022/05/27 12:16:27;;;;;;;1.95;1.30;;;21.00;91.10;;;;;;7406495;19;20353;-88
2022/05/27 12:18:55;;;;;;;1.90;1.60;;;20.90;93.30;;;;;;7408060;19;20353;-83
2022/05/27 12:21:26;;;;;;;2.22;1.30;;;20.70;92.90;;;;;;7406141;19;20463;-83
2022/05/27 12:23:55;;;;;;;2.03;1.77;;;20.60;93.50;;;;;;7408801;19;20341;-86
2022/05/27 12:26:27;;;;;;;2.63;1.60;;;20.60;94.60;;;;;;7402969;19;21047;-90
2022/05/27 12:28:53;;;;;;;3.28;1.58;;;20.30;94.20;;;;;;7407254;19;20352;-86
2022/05/27 12:31:19;;;;;;;1.73;1.33;;;20.90;93.40;;;;;;7399310;19;20356;-84
2022/05/27 12:33:44;;;;;;;1.40;1.30;;;21.30;96.20;;;;;;7406189;19;20360;-91
2022/05/27 12:36:25;;;;;;;4.80;1.43;;;21.20;95.30;;;;;;7404350;19;20368;-82
2022/05/27 12:38:53;;;;;;;1.42;1.33;;;20.90;89.60;;;;;;7405680;19;20925;-87
2022/05/27 12:41:35;;;;;;;2.75;1.42;;;21.30;86.90;;;;;;7401403;19;20387;-85
2022/05/27 12:44:20;;;;;;;4.20;1.67;;;22.00;91.60;;;;;;7403934;19;21134;-86
2022/05/27 12:46:46;;;;;;;2.88;1.55;;;22.30;88.40;;;;;;7398098;19;20345;-86
2022/05/27 12:49:54;;;;;;;1.35;1.20;;;21.10;82.50;;;;;;7400962;19;20357;-85
2022/05/27 12:52:28;;;;;;;2.53;1.23;;;20.70;81.50;;;;;;7389542;19;20352;-81
2022/05/27 12:54:54;;;;;;;3.03;1.27;;;20.50;82.90;;;;;;7388993;19;20348;-83
2022/05/27 13:03:33;;;;;;;4.15;1.60;;;21.00;88.80;;;;;;7385154;19;21057;-82
2022/05/27 13:06:25;;;;;;;3.50;1.65;;;21.60;83.70;;;;;;7383515;19;21137;-87
2022/05/27 13:08:51;;;;;;;1.92;1.30;;;21.90;82.20;;;;;;7389896;19;20357;-81
2022/05/27 13:11:37;;;;;;;3.25;1.30;;;22.20;82.90;;;;;;7386136;19;20425;-83
2022/05/27 13:14:03;;;;;;;1.77;1.33;;;22.60;82.10;;;;;;7395100;19;20397;-84
2022/05/27 13:16:30;;;;;;;1.70;1.47;;;22.60;82.10;;;;;;7392926;19;20364;-85
2022/05/27 13:19:08;;;;;;;2.25;1.52;;;22.30;75.70;;;;;;7385476;19;21142;-87
2022/05/27 13:21:54;;;;;;;1.80;1.50;;;22.00;76.00;;;;;;7382097;19;20955;-84
2022/05/27 13:24:20;;;;;;;2.25;1.40;;;22.40;74.10;;;;;;7387216;19;20378;-83
2022/05/27 13:26:52;;;;;;;2.40;1.37;;;22.40;72.20;;;;;;7389256;19;20340;-86
2022/05/27 13:29:28;;;;;;;4.20;1.60;;;22.70;71.10;;;;;;7404278;19;21254;-87
2022/05/27 13:32:21;;;;;;;2.10;1.42;;;22.90;73.50;;;;;;7389263;19;20747;-82
2022/05/27 13:34:50;;;;;;;5.07;1.38;;;22.00;69.20;;;;;;7382191;19;20380;-81
2022/05/27 13:37:24;;;;;;;2.38;1.30;;;21.60;72.30;;;;;;7379596;19;20388;-80
2022/05/27 13:39:52;;;;;;;2.72;1.30;;;21.60;67.60;;;;;;7384148;19;20325;-80
2022/05/27 13:42:42;;;;;;;3.92;1.33;;;21.80;67.90;;;;;;7375078;19;20369;-79
2022/05/27 13:45:29;;;;;;;2.72;1.33;;;22.30;70.00;;;;;;7387278;19;20356;-81
2022/05/27 13:47:58;;;;;;;4.18;1.40;;;22.20;67.50;;;;;;7386974;19;20418;-80